Time;durP1;ratioP1;P1;durP2;ratioP2;P2;SDS_P1;SDS_P2;PMS_P1;PMS_P2;Temp;Humidity;BMP_temperature;BMP_pressure;BME280_temperature;BME280_humidity;BME280_pressure;Samples;Min_cycle;Max_cycle;Signal;HPM_P1;HPM_P2
2023/11/13 00:01:47;;;;;;;42.53;8.40;;;;;;;9.67;100.00;98629.81;5064560;28;20037;-45
2023/11/13 00:04:14;;;;;;;48.88;9.18;;;;;;;9.67;100.00;98627.03;5063200;28;20118;-45
2023/11/13 00:06:41;;;;;;;40.47;9.30;;;;;;;9.70;100.00;98606.91;5063692;28;20463;-41
2023/11/13 00:09:09;;;;;;;51.28;8.18;;;;;;;9.70;100.00;98610.47;5066892;28;20056;-44
2023/11/13 00:11:36;;;;;;;54.25;11.48;;;;;;;9.72;100.00;98594.28;5066992;28;20224;-42
2023/11/13 00:14:03;;;;;;;52.47;7.10;;;;;;;9.74;100.00;98602.22;5070465;28;20495;-42
2023/11/13 00:16:30;;;;;;;42.63;10.00;;;;;;;9.74;100.00;98596.69;5067859;28;20061;-46
2023/11/13 00:18:57;;;;;;;41.63;7.72;;;;;;;9.75;100.00;98587.19;5063706;28;20055;-42
2023/11/13 00:21:23;;;;;;;51.58;8.93;;;;;;;9.75;100.00;98576.13;5070301;28;20040;-47
2023/11/13 00:23:50;;;;;;;36.92;8.07;;;;;;;9.76;100.00;98578.53;5069570;28;20098;-43
2023/11/13 00:26:18;;;;;;;43.17;6.80;;;;;;;9.76;100.00;98573.00;5070474;28;20482;-42
2023/11/13 00:28:45;;;;;;;26.73;6.30;;;;;;;9.79;100.00;98568.66;5070928;28;20098;-41
2023/11/13 00:31:13;;;;;;;30.48;6.00;;;;;;;9.80;100.00;98561.94;5071095;28;20058;-44
2023/11/13 00:33:40;;;;;;;50.85;9.13;;;;;;;9.84;100.00;98559.19;5071207;28;20060;-45
2023/11/13 00:36:07;;;;;;;23.55;4.75;;;;;;;9.87;100.00;98545.38;5070959;28;20037;-42
2023/11/13 00:38:34;;;;;;;39.85;8.18;;;;;;;9.88;100.00;98546.94;5071467;28;20073;-42
2023/11/13 00:41:01;;;;;;;30.50;6.78;;;;;;;9.90;100.00;98533.50;5070222;28;20064;-43
2023/11/13 00:43:29;;;;;;;41.10;6.20;;;;;;;9.91;100.00;98535.09;5070813;28;20177;-40
2023/11/13 00:45:55;;;;;;;38.40;6.97;;;;;;;9.93;100.00;98521.66;5069810;28;20102;-42
2023/11/13 00:48:23;;;;;;;25.83;6.53;;;;;;;9.93;100.00;98510.63;5070385;28;20068;-41
2023/11/13 00:50:50;;;;;;;25.17;6.35;;;;;;;9.94;100.00;98506.69;5070029;28;20126;-41
2023/11/13 00:53:17;;;;;;;31.65;6.68;;;;;;;9.96;100.00;98504.31;5069631;28;20052;-40
2023/11/13 00:55:45;;;;;;;26.52;5.55;;;;;;;9.99;100.00;98495.22;5057419;28;20056;-41
2023/11/13 00:58:12;;;;;;;26.52;6.13;;;;;;;9.99;100.00;98502.72;5052664;28;20044;-41
2023/11/13 01:00:38;;;;;;;30.98;5.72;;;;;;;10.00;100.00;98493.25;5071023;28;20813;-41
2023/11/13 01:03:05;;;;;;;32.17;6.43;;;;;;;10.00;100.00;98490.50;5070188;28;20075;-41
2023/11/13 01:05:33;;;;;;;31.70;6.70;;;;;;;10.01;100.00;98492.06;5070223;28;20391;-40
2023/11/13 01:08:01;;;;;;;37.83;5.88;;;;;;;10.00;100.00;98471.94;5070100;28;20049;-40
2023/11/13 01:10:27;;;;;;;35.78;6.90;;;;;;;10.01;100.00;98473.50;5062617;28;20040;-40
2023/11/13 01:12:54;;;;;;;26.95;5.03;;;;;;;10.02;100.00;98457.69;5064488;28;20114;-41
2023/11/13 01:15:21;;;;;;;26.80;5.82;;;;;;;10.01;100.00;98443.09;5052397;28;20044;-42
2023/11/13 01:17:48;;;;;;;31.95;5.97;;;;;;;10.01;100.00;98432.03;5070663;28;20036;-40
2023/11/13 01:20:17;;;;;;;24.83;5.55;;;;;;;10.02;100.00;98421.78;5070184;28;20085;-41
2023/11/13 01:22:45;;;;;;;29.67;5.35;;;;;;;10.00;100.00;98397.31;5051750;28;20665;-40
2023/11/13 01:25:12;;;;;;;24.20;4.68;;;;;;;10.01;100.00;98379.50;5051347;28;20041;-43
2023/11/13 01:27:39;;;;;;;22.95;4.18;;;;;;;10.02;100.00;98375.56;5047343;28;20044;-40
2023/11/13 01:30:06;;;;;;;22.98;3.63;;;;;;;10.03;100.00;98360.56;5055003;28;20072;-39
2023/11/13 01:32:33;;;;;;;17.05;3.92;;;;;;;10.01;100.00;98340.81;5065771;28;20461;-40
2023/11/13 01:35:00;;;;;;;20.88;4.00;;;;;;;10.03;100.00;98330.16;5064712;28;20051;-44
2023/11/13 01:37:27;;;;;;;18.67;4.35;;;;;;;10.04;100.00;98334.50;5069439;28;20799;-44
2023/11/13 01:39:53;;;;;;;19.77;3.83;;;;;;;10.04;100.00;98331.72;5070108;28;20544;-45
2023/11/13 01:42:21;;;;;;;22.42;4.55;;;;;;;10.04;100.00;98331.72;5069765;28;20135;-40
2023/11/13 01:44:49;;;;;;;27.13;4.75;;;;;;;10.05;100.00;98336.06;5069779;28;20140;-46
2023/11/13 01:47:17;;;;;;;29.17;4.25;;;;;;;10.05;100.00;98313.97;5056023;28;20102;-41
2023/11/13 01:49:44;;;;;;;36.65;6.95;;;;;;;10.07;100.00;98308.03;5069653;28;20631;-42
2023/11/13 01:52:12;;;;;;;31.38;4.72;;;;;;;10.07;100.00;98294.19;5068894;28;20435;-45
2023/11/13 01:54:39;;;;;;;27.42;4.30;;;;;;;10.08;100.00;98273.66;5069466;28;20044;-41
2023/11/13 01:57:07;;;;;;;25.85;5.10;;;;;;;10.08;100.00;98246.03;5068705;28;20135;-41
2023/11/13 01:59:37;;;;;;;33.45;5.45;;;;;;;10.08;100.00;98232.19;5069357;28;20039;-40
2023/11/13 02:02:04;;;;;;;43.80;5.95;;;;;;;10.07;100.00;98231.41;5050398;28;20509;-40
2023/11/13 02:04:31;;;;;;;30.70;5.30;;;;;;;10.07;100.00;98220.34;5068926;28;20531;-41
2023/11/13 02:06:58;;;;;;;32.33;5.00;;;;;;;10.05;100.00;98197.84;5068530;28;20082;-40
2023/11/13 02:09:25;;;;;;;29.25;4.78;;;;;;;10.05;100.00;98197.06;5069111;28;20041;-40
2023/11/13 02:11:52;;;;;;;40.45;5.00;;;;;;;10.03;100.00;98171.81;5069568;28;20037;-40
2023/11/13 02:14:19;;;;;;;29.40;4.72;;;;;;;10.01;100.00;98147.31;5050487;28;20067;-40
2023/11/13 02:16:46;;;;;;;31.63;4.90;;;;;;;10.02;100.00;98148.91;5060571;28;20048;-40
2023/11/13 02:19:17;;;;;;;39.80;6.00;;;;;;;10.01;100.00;98138.25;5064848;28;20040;-43
2023/11/13 02:21:44;;;;;;;41.03;5.47;;;;;;;10.01;100.00;98125.22;5068872;28;20048;-40
2023/11/13 02:24:12;;;;;;;31.88;5.80;;;;;;;10.01;100.00;98119.69;5061149;28;20086;-40
2023/11/13 02:26:40;;;;;;;16.13;3.15;;;;;;;10.00;100.00;98087.72;5068942;28;20048;-40
2023/11/13 02:29:07;;;;;;;24.63;4.20;;;;;;;9.98;100.00;98081.78;5068227;28;20132;-42
2023/11/13 02:31:34;;;;;;;25.70;3.67;;;;;;;9.92;100.00;98072.38;5067033;28;20040;-40
2023/11/13 02:34:00;;;;;;;20.08;3.25;;;;;;;9.88;100.00;98055.03;5067125;28;20597;-45
2023/11/13 02:36:27;;;;;;;18.38;3.63;;;;;;;9.86;100.00;98032.53;5068001;28;20059;-40
2023/11/13 02:38:54;;;;;;;22.38;5.05;;;;;;;9.84;100.00;98026.66;5068045;28;20058;-40
2023/11/13 02:41:21;;;;;;;28.80;4.20;;;;;;;9.82;100.00;97996.63;5068742;28;20580;-41
2023/11/13 02:43:48;;;;;;;37.58;5.20;;;;;;;9.82;100.00;97989.56;5068845;28;20048;-40
2023/11/13 02:46:14;;;;;;;31.33;4.35;;;;;;;9.82;100.00;97963.47;5068188;28;20045;-40
2023/11/13 02:48:41;;;;;;;35.17;4.03;;;;;;;9.83;100.00;97958.75;5068179;28;20049;-41
2023/11/13 02:51:08;;;;;;;30.13;5.13;;;;;;;9.84;100.00;97943.75;5068153;28;20044;-41
2023/11/13 02:53:35;;;;;;;39.80;6.47;;;;;;;9.88;100.00;97938.97;5068572;28;20140;-40
2023/11/13 02:56:01;;;;;;;31.20;5.07;;;;;;;9.91;100.00;97921.56;5068548;28;20552;-40
2023/11/13 02:58:28;;;;;;;26.85;5.07;;;;;;;9.94;100.00;97900.63;5068620;28;20032;-40
2023/11/13 03:00:55;;;;;;;27.40;5.60;;;;;;;9.97;100.00;97881.25;5099653;22;20060;-45
2023/11/13 03:03:25;;;;;;;35.88;6.30;;;;;;;10.03;100.00;97873.28;5065095;28;20098;-40
2023/11/13 03:05:53;;;;;;;35.38;5.55;;;;;;;10.06;100.00;97851.13;5068159;28;20040;-40
2023/11/13 03:08:19;;;;;;;27.70;4.65;;;;;;;10.09;100.00;97819.91;5066941;28;20132;-40
2023/11/13 03:10:46;;;;;;;30.67;5.65;;;;;;;10.12;100.00;97802.53;5068439;28;20052;-40
2023/11/13 03:13:13;;;;;;;29.10;4.78;;;;;;;10.16;100.00;97789.47;5067946;28;20123;-40
2023/11/13 03:15:41;;;;;;;28.77;3.85;;;;;;;10.21;100.00;97790.97;5068699;28;20063;-41
2023/11/13 03:18:11;;;;;;;31.30;5.25;;;;;;;10.24;100.00;97752.22;5059273;28;20041;-41
2023/11/13 03:20:38;;;;;;;22.17;3.22;;;;;;;10.28;100.00;97719.75;5068261;28;20048;-41
2023/11/13 03:23:05;;;;;;;22.90;4.03;;;;;;;10.32;100.00;97711.44;5067741;28;20059;-39
2023/11/13 03:25:32;;;;;;;24.05;3.40;;;;;;;10.33;100.00;97699.94;5068391;28;20401;-41
2023/11/13 03:27:58;;;;;;;26.00;5.22;;;;;;;10.37;100.00;97689.63;5067557;28;20494;-39
2023/11/13 03:30:25;;;;;;;27.73;4.25;;;;;;;10.40;100.00;97647.28;5068031;28;20094;-42
2023/11/13 03:32:52;;;;;;;27.92;4.22;;;;;;;10.44;100.00;97646.44;5067865;28;20047;-40
2023/11/13 03:35:19;;;;;;;31.52;4.57;;;;;;;10.47;100.00;97617.94;5066464;28;20040;-40
2023/11/13 03:37:46;;;;;;;22.63;3.42;;;;;;;10.49;100.00;97610.00;5067786;28;20048;-39
2023/11/13 03:40:15;;;;;;;33.40;4.35;;;;;;;10.50;100.00;97576.41;5067484;28;20490;-40
2023/11/13 03:42:42;;;;;;;33.05;4.78;;;;;;;10.52;100.00;97570.44;5067697;28;20037;-40
2023/11/13 03:45:09;;;;;;;33.95;5.53;;;;;;;10.53;100.00;97536.06;5067606;28;20052;-40
2023/11/13 03:47:38;;;;;;;39.50;6.22;;;;;;;10.54;100.00;97535.63;5048636;28;20051;-40
2023/11/13 03:50:06;;;;;;;42.47;5.50;;;;;;;10.55;100.00;97531.69;5067377;28;20118;-44
2023/11/13 03:52:33;;;;;;;34.20;4.22;;;;;;;10.56;100.00;97508.34;5067282;28;20044;-40
2023/11/13 03:55:00;;;;;;;32.42;4.13;;;;;;;10.58;100.00;97488.56;5065998;28;20045;-40
2023/11/13 03:57:27;;;;;;;25.10;4.47;;;;;;;10.60;100.00;97491.66;5067665;28;20032;-40
2023/11/13 03:59:53;;;;;;;19.83;5.18;;;;;;;10.63;100.00;97463.16;5067212;28;20068;-39
2023/11/13 04:02:20;;;;;;;25.20;4.75;;;;;;;10.64;100.00;97445.38;5067158;28;20053;-42
2023/11/13 04:04:47;;;;;;;23.40;4.03;;;;;;;10.65;100.00;97431.09;5067210;28;20079;-39
2023/11/13 04:07:19;;;;;;;21.48;4.35;;;;;;;10.67;100.00;97400.25;5066780;28;20047;-40
2023/11/13 04:09:47;;;;;;;21.70;3.47;;;;;;;10.67;100.00;97414.84;5066318;28;20521;-40
2023/11/13 04:12:13;;;;;;;30.13;4.85;;;;;;;10.68;100.00;97404.56;5066679;28;20121;-40
2023/11/13 04:14:40;;;;;;;25.40;3.60;;;;;;;10.69;100.00;97384.78;5058852;28;21141;-43
2023/11/13 04:17:08;;;;;;;21.95;3.25;;;;;;;10.71;100.00;97376.84;5067213;28;20111;-39
2023/11/13 04:19:34;;;;;;;19.02;3.13;;;;;;;10.73;100.00;97357.03;5066474;28;20044;-40
2023/11/13 04:22:01;;;;;;;17.05;2.08;;;;;;;10.77;100.00;97343.91;5067440;28;20131;-40
2023/11/13 04:24:28;;;;;;;5.00;1.23;;;;;;;10.78;100.00;97315.81;5046343;28;20041;-40
2023/11/13 04:26:55;;;;;;;5.63;1.25;;;;;;;10.79;100.00;97306.31;5062266;28;20041;-46
2023/11/13 04:29:21;;;;;;;14.32;1.50;;;;;;;10.82;100.00;97282.53;5067036;28;20044;-40
2023/11/13 04:31:49;;;;;;;3.97;0.85;;;;;;;10.83;100.00;97268.25;5063211;28;20059;-41
2023/11/13 04:34:16;;;;;;;9.15;1.40;;;;;;;10.85;100.00;97251.22;5065904;28;20098;-41
2023/11/13 04:36:43;;;;;;;7.93;1.15;;;;;;;10.87;100.00;97234.97;5066679;28;20041;-40
2023/11/13 04:39:11;;;;;;;9.80;1.25;;;;;;;10.90;100.00;97234.09;5061544;28;20044;-41
2023/11/13 04:41:39;;;;;;;4.13;0.88;;;;;;;10.92;100.00;97228.91;5049310;28;20126;-41
2023/11/13 04:44:06;;;;;;;5.32;0.77;;;;;;;10.93;100.00;97222.19;5066698;28;20047;-41
2023/11/13 04:46:33;;;;;;;8.05;1.13;;;;;;;10.96;100.00;97221.31;5066374;28;20032;-42
2023/11/13 04:49:00;;;;;;;2.20;0.47;;;;;;;10.97;100.00;97200.72;5066409;28;20071;-42
2023/11/13 04:51:26;;;;;;;6.05;0.55;;;;;;;10.97;100.00;97203.47;5067222;28;20041;-43
2023/11/13 04:53:53;;;;;;;0.75;0.13;;;;;;;10.99;100.00;97167.84;5065956;28;20052;-43
2023/11/13 04:56:20;;;;;;;1.40;0.30;;;;;;;11.02;100.00;97170.53;5048339;28;20036;-46
2023/11/13 04:58:47;;;;;;;3.83;0.38;;;;;;;11.00;100.00;97167.41;5067788;28;20049;-40
2023/11/13 05:01:17;;;;;;;4.00;0.40;;;;;;;11.04;100.00;97164.53;5070208;28;20053;-40
2023/11/13 05:03:44;;;;;;;10.07;1.17;;;;;;;11.07;100.00;97152.59;5070068;28;20048;-41
2023/11/13 05:06:14;;;;;;;9.30;1.13;;;;;;;11.14;100.00;97132.28;5070158;28;20056;-40
2023/11/13 05:08:43;;;;;;;5.82;1.67;;;;;;;11.16;100.00;97144.47;5070416;28;20118;-42
2023/11/13 05:11:40;;;;;;;7.70;1.42;;;;;;;11.20;100.00;97142.38;5069483;28;20102;-41
2023/11/13 05:14:07;;;;;;;6.90;1.27;;;;;;;11.23;100.00;97138.72;5043893;28;20079;-42
2023/11/13 05:16:33;;;;;;;12.27;2.22;;;;;;;11.27;100.00;97119.25;5069128;28;20051;-41
2023/11/13 05:19:03;;;;;;;8.50;1.50;;;;;;;11.28;100.00;97129.88;5066820;28;20098;-44
2023/11/13 05:21:30;;;;;;;6.68;1.55;;;;;;;11.28;100.00;97149.28;5070208;28;20041;-43
2023/11/13 05:23:56;;;;;;;13.15;2.80;;;;;;;11.26;100.00;97106.63;5066328;28;20049;-42
2023/11/13 05:26:23;;;;;;;4.20;1.27;;;;;;;11.22;100.00;97139.97;5070461;28;20555;-41
2023/11/13 05:28:50;;;;;;;10.40;1.73;;;;;;;11.21;100.00;97116.25;5061981;28;20044;-42
2023/11/13 05:31:19;;;;;;;6.30;1.40;;;;;;;11.19;100.00;97113.13;5068129;28;20041;-41
2023/11/13 05:33:46;;;;;;;9.32;1.50;;;;;;;11.16;100.00;97125.09;5070276;28;20056;-49
2023/11/13 05:36:13;;;;;;;8.60;1.00;;;;;;;11.12;100.00;97129.94;5069939;28;20147;-45
2023/11/13 05:38:43;;;;;;;15.00;3.33;;;;;;;11.08;100.00;97145.09;5068968;28;20132;-45
2023/11/13 05:41:10;;;;;;;11.38;1.30;;;;;;;11.07;100.00;97155.38;5057145;28;20047;-41
2023/11/13 05:43:37;;;;;;;6.03;1.10;;;;;;;11.06;100.00;97153.84;5069338;28;20416;-41
2023/11/13 05:46:05;;;;;;;7.13;1.38;;;;;;;11.08;100.00;97215.06;5068684;28;20041;-42
2023/11/13 05:48:32;;;;;;;5.97;1.60;;;;;;;11.11;100.00;97255.72;5068998;28;20504;-39
2023/11/13 05:50:59;;;;;;;3.92;0.40;;;;;;;10.94;100.00;97284.59;5051090;28;20132;-39
2023/11/13 05:53:26;;;;;;;2.20;1.05;;;;;;;10.72;100.00;97272.50;5067102;28;20040;-40
2023/11/13 05:55:53;;;;;;;0.73;0.45;;;;;;;10.50;100.00;97277.72;5069920;28;20048;-39
2023/11/13 05:58:23;;;;;;;0.93;0.40;;;;;;;10.31;100.00;97289.59;5069782;28;20051;-39
2023/11/13 06:00:50;;;;;;;2.08;0.32;;;;;;;10.20;100.00;97273.22;5070123;28;20500;-42
2023/11/13 06:03:17;;;;;;;1.38;0.10;;;;;;;10.13;100.00;97264.28;5068411;28;20041;-40
2023/11/13 06:05:45;;;;;;;0.63;0.10;;;;;;;10.07;100.00;97250.16;5069367;28;20148;-44
2023/11/13 06:08:12;;;;;;;2.85;0.20;;;;;;;10.02;100.00;97261.72;5069529;28;20108;-41
2023/11/13 06:10:41;;;;;;;0.85;0.10;;;;;;;9.94;100.00;97290.69;5059059;28;20458;-42
2023/11/13 06:13:09;;;;;;;0.70;0.10;;;;;;;9.82;100.00;97272.00;5063025;28;20032;-41
2023/11/13 06:15:40;;;;;;;0.65;0.22;;;;;;;9.71;100.00;97261.16;5068642;28;20076;-43
2023/11/13 06:18:07;;;;;;;0.00;0.00;;;;;;;9.60;100.00;97279.13;5068497;28;20041;-42
2023/11/13 06:20:35;;;;;;;1.65;0.10;;;;;;;9.53;100.00;97248.88;5065053;28;20150;-41
2023/11/13 06:23:02;;;;;;;0.68;0.10;;;;;;;9.46;100.00;97282.13;5068797;28;20052;-41
2023/11/13 06:25:30;;;;;;;0.80;0.17;;;;;;;9.42;100.00;97265.66;5069143;28;20102;-41
2023/11/13 06:27:57;;;;;;;1.48;0.20;;;;;;;9.40;100.00;97283.84;5068371;28;20082;-41
2023/11/13 06:30:24;;;;;;;0.43;0.43;;;;;;;9.37;100.00;97284.69;5067257;28;20052;-41
2023/11/13 06:32:50;;;;;;;0.75;0.20;;;;;;;9.33;100.00;97257.13;5068676;28;20055;-43
2023/11/13 06:35:17;;;;;;;0.60;0.17;;;;;;;9.31;100.00;97269.78;5067400;28;20049;-42
2023/11/13 06:37:44;;;;;;;0.88;0.20;;;;;;;9.29;100.00;97272.19;5068367;28;20040;-42
2023/11/13 06:40:14;;;;;;;1.85;0.20;;;;;;;9.27;100.00;97274.56;5068093;28;20024;-41
2023/11/13 06:42:46;;;;;;;1.13;0.30;;;;;;;9.28;100.00;97270.63;5065101;28;20090;-43
2023/11/13 06:45:14;;;;;;;1.30;0.22;;;;;;;9.29;100.00;97269.44;5067953;28;20043;-46
2023/11/13 06:47:41;;;;;;;1.00;0.30;;;;;;;9.30;100.00;97279.25;5050695;28;20113;-43
2023/11/13 06:50:09;;;;;;;5.15;0.70;;;;;;;9.30;100.00;97282.03;5067914;28;20037;-42
2023/11/13 06:52:35;;;;;;;0.75;0.30;;;;;;;9.29;100.00;97272.97;5067823;28;20032;-41
2023/11/13 06:55:03;;;;;;;4.65;0.50;;;;;;;9.28;100.00;97303.75;5062357;28;20053;-42
2023/11/13 06:57:30;;;;;;;1.60;0.30;;;;;;;9.26;100.00;97287.63;5068195;28;20589;-42
2023/11/13 06:59:57;;;;;;;3.45;0.40;;;;;;;9.24;100.00;97289.25;5068066;28;20044;-42
2023/11/13 07:02:26;;;;;;;5.45;0.80;;;;;;;9.23;100.00;97299.50;5067415;28;20044;-43
2023/11/13 07:04:54;;;;;;;1.17;0.68;;;;;;;9.19;100.00;97285.75;5067114;28;20567;-41
2023/11/13 07:07:21;;;;;;;1.20;0.30;;;;;;;9.16;100.00;97291.31;5067991;28;20055;-44
2023/11/13 07:09:48;;;;;;;1.15;0.30;;;;;;;9.12;100.00;97305.19;5068320;28;20047;-41
2023/11/13 07:12:15;;;;;;;1.98;0.20;;;;;;;9.11;100.00;97319.38;5067396;28;20076;-42
2023/11/13 07:14:41;;;;;;;4.63;0.40;;;;;;;9.09;100.00;97313.50;5068195;28;20079;-42
2023/11/13 07:17:08;;;;;;;2.40;0.22;;;;;;;9.08;100.00;97318.25;5057870;28;20311;-42
2023/11/13 07:19:36;;;;;;;3.63;0.50;;;;;;;9.06;100.00;97322.63;5063400;28;20082;-42
2023/11/13 07:22:06;;;;;;;1.90;0.40;;;;;;;9.06;100.00;97345.47;5049398;28;20037;-42
2023/11/13 07:24:36;;;;;;;1.27;0.40;;;;;;;9.06;100.00;97328.94;5066633;28;20072;-42
2023/11/13 07:27:04;;;;;;;1.27;0.10;;;;;;;9.06;100.00;97339.19;5059881;28;20114;-41
2023/11/13 07:29:34;;;;;;;3.05;0.55;;;;;;;9.01;100.00;97359.75;5065626;28;20025;-42
2023/11/13 07:32:04;;;;;;;6.07;0.50;;;;;;;8.97;100.00;97345.25;5067765;28;20037;-43
2023/11/13 07:34:32;;;;;;;1.35;0.20;;;;;;;8.94;100.00;97357.09;5067782;28;20041;-41
2023/11/13 07:36:58;;;;;;;1.05;0.22;;;;;;;8.89;100.00;97387.91;5067053;28;20036;-41
2023/11/13 07:39:27;;;;;;;1.52;0.65;;;;;;;8.88;100.00;97385.56;5067312;28;20155;-41
2023/11/13 07:41:56;;;;;;;2.88;0.50;;;;;;;8.85;100.00;97416.72;5067821;28;20105;-41
2023/11/13 07:44:23;;;;;;;2.92;0.20;;;;;;;8.82;100.00;97417.56;5067439;28;20039;-41
2023/11/13 07:46:52;;;;;;;3.63;0.30;;;;;;;8.79;100.00;97427.44;5067735;28;20046;-41
2023/11/13 07:49:19;;;;;;;1.08;0.20;;;;;;;8.75;100.00;97446.03;5067550;28;20044;-40
2023/11/13 07:51:46;;;;;;;1.50;0.30;;;;;;;8.71;100.00;97403.16;5066814;28;20131;-41
2023/11/13 07:54:13;;;;;;;1.95;0.17;;;;;;;8.68;100.00;97442.56;5049329;28;20068;-41
2023/11/13 07:56:40;;;;;;;0.85;0.20;;;;;;;8.65;100.00;97427.63;5067842;28;20155;-41
2023/11/13 07:59:08;;;;;;;1.38;0.85;;;;;;;8.64;100.00;97430.78;5067441;28;20051;-40
2023/11/13 08:01:34;;;;;;;3.63;0.20;;;;;;;8.63;100.00;97430.00;5067146;28;20613;-44
2023/11/13 08:04:02;;;;;;;1.65;0.10;;;;;;;8.62;100.00;97450.53;5063364;28;20039;-42
2023/11/13 08:06:29;;;;;;;1.58;0.22;;;;;;;8.61;100.00;97448.16;5066599;28;20044;-43
2023/11/13 08:08:56;;;;;;;0.22;0.08;;;;;;;8.61;100.00;97459.19;5064926;28;20098;-42
2023/11/13 08:11:23;;;;;;;0.50;0.22;;;;;;;8.59;100.00;97465.13;5066665;28;20047;-43
2023/11/13 08:13:51;;;;;;;2.38;0.55;;;;;;;8.61;100.00;97459.19;5066327;28;20051;-43
2023/11/13 08:16:18;;;;;;;2.13;0.68;;;;;;;8.60;100.00;97480.50;5060330;28;20040;-42
2023/11/13 08:18:45;;;;;;;1.77;0.50;;;;;;;8.61;100.00;97471.00;5062071;28;20044;-50
2023/11/13 08:21:13;;;;;;;2.50;0.70;;;;;;;8.60;100.00;97486.00;5050064;28;20029;-42
2023/11/13 08:23:40;;;;;;;5.65;0.57;;;;;;;8.64;100.00;97470.19;5063959;28;20060;-43
2023/11/13 08:26:08;;;;;;;1.95;0.80;;;;;;;8.68;100.00;97487.50;5059566;28;20163;-43
2023/11/13 08:28:35;;;;;;;2.47;0.80;;;;;;;8.73;100.00;97500.81;5058800;28;20407;-40
2023/11/13 08:31:03;;;;;;;5.15;1.02;;;;;;;8.78;100.00;97480.28;5054837;28;20033;-45
2023/11/13 08:33:33;;;;;;;3.40;0.67;;;;;;;8.80;100.00;97499.94;5060522;28;20130;-44
2023/11/13 08:36:00;;;;;;;7.60;0.70;;;;;;;8.82;100.00;97506.59;5061057;28;20517;-42
2023/11/13 08:38:27;;;;;;;2.42;1.08;;;;;;;8.85;100.00;97494.75;5059195;28;20041;-43
2023/11/13 08:40:55;;;;;;;5.97;1.05;;;;;;;8.85;100.00;97514.06;5063606;28;20049;-43
2023/11/13 08:43:22;;;;;;;6.32;1.80;;;;;;;8.85;100.00;97507.75;5063338;28;20037;-43
2023/11/13 08:45:49;;;;;;;5.30;0.90;;;;;;;8.86;100.00;97529.44;5056542;28;20087;-41
2023/11/13 08:48:27;;;;;;;5.78;0.75;;;;;;;8.89;100.00;97536.88;5064698;28;20180;-42
2023/11/13 08:50:54;;;;;;;7.75;1.38;;;;;;;8.92;100.00;97519.47;5063757;28;20086;-42
2023/11/13 08:53:21;;;;;;;8.07;1.90;;;;;;;9.00;100.00;97507.16;5060494;28;20037;-42
2023/11/13 08:55:49;;;;;;;6.43;0.65;;;;;;;9.07;100.00;97555.97;5064475;28;20060;-44
2023/11/13 08:58:18;;;;;;;3.53;0.57;;;;;;;9.09;100.00;97532.28;5062348;28;20088;-42
2023/11/13 09:00:48;;;;;;;3.67;0.60;;;;;;;9.10;100.00;97547.69;5058203;28;20043;-44
2023/11/13 09:03:16;;;;;;;5.17;0.93;;;;;;;9.11;100.00;97559.47;5063505;28;20047;-42
2023/11/13 09:05:46;;;;;;;3.45;1.02;;;;;;;9.12;100.00;97550.00;5060954;28;20049;-42
2023/11/13 09:08:13;;;;;;;4.95;0.90;;;;;;;9.15;100.00;97561.00;5060344;28;20049;-42
2023/11/13 09:10:44;;;;;;;2.28;0.85;;;;;;;9.19;100.00;97558.19;5058191;28;20055;-42
2023/11/13 09:13:12;;;;;;;6.82;1.30;;;;;;;9.21;100.00;97513.63;5061777;28;20393;-42
2023/11/13 09:15:40;;;;;;;8.98;1.55;;;;;;;9.25;100.00;97569.56;5064804;28;20040;-43
2023/11/13 09:18:09;;;;;;;10.57;2.20;;;;;;;9.28;100.00;97577.00;5061479;28;20394;-43
2023/11/13 09:20:38;;;;;;;7.85;1.50;;;;;;;9.35;100.00;97579.69;5057483;28;20064;-42
2023/11/13 09:23:05;;;;;;;8.20;1.58;;;;;;;9.41;100.00;97589.06;5060073;28;20037;-42
2023/11/13 09:25:32;;;;;;;5.00;1.50;;;;;;;9.45;100.00;97600.88;5061958;28;20041;-42
2023/11/13 09:28:00;;;;;;;6.13;1.30;;;;;;;9.46;100.00;97581.13;5060814;28;20036;-43
2023/11/13 09:30:27;;;;;;;4.97;1.50;;;;;;;9.47;100.00;97587.44;5066106;28;20076;-42
2023/11/13 09:32:55;;;;;;;11.88;2.70;;;;;;;9.47;100.00;97612.28;5058921;28;20037;-45
2023/11/13 09:35:24;;;;;;;12.90;2.50;;;;;;;9.48;100.00;97617.38;5058598;28;20594;-42
2023/11/13 09:37:56;;;;;;;12.52;1.65;;;;;;;9.51;100.00;97604.72;5064647;28;20044;-43
2023/11/13 09:40:31;;;;;;;7.85;2.13;;;;;;;9.52;100.00;97656.00;5057232;28;20041;-42
2023/11/13 09:43:14;;;;;;;13.70;1.80;;;;;;;9.49;100.00;97659.59;5063450;28;20056;-45
2023/11/13 09:45:45;;;;;;;7.85;2.10;;;;;;;9.43;100.00;97666.75;5058707;28;20052;-45
2023/11/13 09:48:19;;;;;;;15.95;2.13;;;;;;;9.36;100.00;97642.78;5057842;28;20051;-44
2023/11/13 09:50:47;;;;;;;9.65;2.38;;;;;;;9.34;100.00;97661.75;5055339;28;20060;-41
2023/11/13 09:53:19;;;;;;;7.25;1.98;;;;;;;9.34;100.00;97672.78;5057292;28;20029;-42
2023/11/13 09:55:46;;;;;;;9.48;1.63;;;;;;;9.33;100.00;97664.91;5057732;28;20098;-41
2023/11/13 09:58:14;;;;;;;14.80;1.83;;;;;;;9.36;100.00;97695.25;5058200;28;20076;-45
2023/11/13 10:00:41;;;;;;;8.55;1.90;;;;;;;9.39;100.00;97679.81;5059293;28;20498;-42
2023/11/13 10:03:14;;;;;;;11.10;2.33;;;;;;;9.44;100.00;97690.41;5060428;28;20040;-42
2023/11/13 10:05:43;;;;;;;7.75;1.80;;;;;;;9.53;100.00;97712.81;5060317;28;20094;-43
2023/11/13 10:08:11;;;;;;;19.92;4.35;;;;;;;9.62;100.00;97702.03;5054284;28;20029;-42
2023/11/13 10:10:42;;;;;;;8.57;1.52;;;;;;;9.68;100.00;97722.50;5060261;28;20503;-41
2023/11/13 10:13:11;;;;;;;;;;;;;;;9.68;100.00;97736.31;5059752;28;20155;-43
2023/11/13 10:15:42;;;;;;;10.00;2.20;;;;;;;9.73;100.00;97733.88;5062813;28;19932;-42
2023/11/13 10:18:12;;;;;;;11.88;2.30;;;;;;;9.82;100.00;97738.13;5059321;28;20041;-47
2023/11/13 10:20:43;;;;;;;5.97;1.92;;;;;;;9.88;100.00;97719.88;5056759;28;20068;-44
2023/11/13 10:23:13;;;;;;;14.30;3.33;;;;;;;9.92;100.00;97768.41;5038536;28;20049;-43
2023/11/13 10:25:50;;;;;;;10.27;2.78;;;;;;;9.96;100.00;97754.50;5065720;28;20041;-42
2023/11/13 10:28:18;;;;;;;14.38;2.13;;;;;;;10.00;100.00;97753.28;5058937;28;20036;-44
2023/11/13 10:30:51;;;;;;;12.50;3.72;;;;;;;10.04;100.00;97742.16;5053371;28;20037;-43
2023/11/13 10:33:19;;;;;;;11.23;2.13;;;;;;;10.07;100.00;97774.53;5063126;28;20041;-42
2023/11/13 10:35:50;;;;;;;12.88;2.17;;;;;;;10.06;100.00;97784.78;5061992;28;20048;-42
2023/11/13 10:38:20;;;;;;;10.75;1.75;;;;;;;10.08;100.00;97793.47;5059042;28;20044;-43
2023/11/13 10:40:58;;;;;;;25.67;5.32;;;;;;;10.05;100.00;97772.19;5054843;28;20140;-42
2023/11/13 10:43:39;;;;;;;12.27;2.15;;;;;;;10.01;100.00;97788.00;5065871;28;20033;-42
2023/11/13 10:46:07;;;;;;;14.70;2.47;;;;;;;9.93;100.00;97800.34;5038318;28;20041;-41
2023/11/13 10:48:42;;;;;;;11.30;1.98;;;;;;;9.87;100.00;97799.25;5060516;28;20075;-41
2023/11/13 10:51:13;;;;;;;7.32;2.20;;;;;;;9.86;100.00;97803.19;5062935;28;20080;-44
2023/11/13 10:53:42;;;;;;;8.25;2.17;;;;;;;9.93;100.00;97814.16;5056343;28;20044;-42
2023/11/13 10:56:11;;;;;;;9.85;2.15;;;;;;;10.05;100.00;97826.66;5060557;28;20076;-42
2023/11/13 10:58:38;;;;;;;10.30;3.03;;;;;;;10.09;100.00;97828.19;5059878;28;20094;-44
2023/11/13 11:01:12;;;;;;;12.65;2.10;;;;;;;10.12;100.00;97855.03;5056610;28;20049;-43
2023/11/13 11:03:45;;;;;;;12.65;1.38;;;;;;;10.10;100.00;97846.34;5052157;28;20060;-42
2023/11/13 11:06:20;;;;;;;11.48;1.73;;;;;;;10.04;100.00;97875.63;5064276;28;20122;-43
2023/11/13 11:08:49;;;;;;;14.90;2.70;;;;;;;10.05;100.00;97871.69;5062471;28;20047;-42
2023/11/13 11:11:19;;;;;;;15.35;3.05;;;;;;;10.16;100.00;97905.56;5057555;28;20063;-42
2023/11/13 11:13:49;;;;;;;7.65;2.50;;;;;;;10.31;100.00;97929.09;5060065;28;20043;-41
2023/11/13 11:16:38;;;;;;;13.18;1.70;;;;;;;10.43;100.00;97919.50;5065785;28;20041;-42
2023/11/13 11:19:17;;;;;;;12.40;2.72;;;;;;;10.56;100.00;97922.50;5054953;28;20052;-42
2023/11/13 11:22:04;;;;;;;10.70;1.90;;;;;;;10.57;99.32;97927.59;5053941;28;20059;-42
2023/11/13 11:24:50;;;;;;;15.40;2.13;;;;;;;10.61;98.61;97947.72;5056622;28;20037;-41
2023/11/13 11:27:41;;;;;;;11.10;2.10;;;;;;;10.70;98.85;97953.53;5058110;28;20048;-42
2023/11/13 11:30:17;;;;;;;10.52;2.05;;;;;;;10.80;98.72;97954.63;5055509;28;20044;-43